Time;durP1;ratioP1;P1;durP2;ratioP2;P2;SDS_P1;SDS_P2;PMS_P1;PMS_P2;Temp;Humidity;BMP_temperature;BMP_pressure;BME280_temperature;BME280_humidity;BME280_pressure;Samples;Min_cycle;Max_cycle;Signal;HPM_P1;HPM_P2
2021/01/06 00:02:15;;;;;;;16.90;11.00;;;5.60;99.90;;;;;;5011945;28;20205;-77
2021/01/06 00:04:42;;;;;;;18.50;10.70;;;5.50;99.90;;;;;;5008749;28;20208;-77
2021/01/06 00:07:08;;;;;;;18.63;11.02;;;5.50;99.90;;;;;;5012730;28;20262;-77
2021/01/06 00:09:34;;;;;;;18.10;11.10;;;5.50;99.90;;;;;;5011299;28;20199;-77
2021/01/06 00:12:00;;;;;;;18.85;10.90;;;5.50;99.90;;;;;;5012790;28;20200;-77
2021/01/06 00:14:27;;;;;;;18.35;10.30;;;5.60;99.90;;;;;;5011779;28;20203;-76
2021/01/06 00:16:55;;;;;;;16.27;10.15;;;5.60;99.90;;;;;;5012446;28;20196;-76
2021/01/06 00:19:22;;;;;;;14.73;10.02;;;5.60;99.90;;;;;;5010180;28;20220;-77
2021/01/06 00:21:48;;;;;;;17.13;10.70;;;5.50;99.90;;;;;;5012155;28;20223;-76
2021/01/06 00:24:15;;;;;;;14.55;9.93;;;5.50;99.90;;;;;;5009553;28;20258;-77
2021/01/06 00:26:41;;;;;;;14.95;9.23;;;5.50;99.90;;;;;;5006591;28;20212;-77
2021/01/06 00:29:09;;;;;;;14.65;9.35;;;5.50;99.90;;;;;;5010063;28;20224;-77
2021/01/06 00:31:39;;;;;;;15.68;8.90;;;5.50;99.90;;;;;;5011881;28;20279;-77
2021/01/06 00:34:05;;;;;;;13.25;9.18;;;5.50;99.90;;;;;;5008723;28;20204;-77
2021/01/06 00:36:33;;;;;;;14.48;9.07;;;5.50;99.90;;;;;;5012425;28;20652;-77
2021/01/06 00:38:59;;;;;;;16.83;9.00;;;5.50;99.90;;;;;;5009896;28;20201;-78
2021/01/06 00:41:27;;;;;;;11.55;8.80;;;5.50;99.90;;;;;;5009819;28;20548;-77
2021/01/06 00:43:53;;;;;;;13.48;9.05;;;5.50;99.90;;;;;;5010673;28;20574;-77
2021/01/06 00:46:20;;;;;;;13.48;8.60;;;5.50;99.90;;;;;;5011179;28;20201;-77
2021/01/06 00:48:46;;;;;;;14.68;9.02;;;5.50;99.90;;;;;;5010381;28;20204;-77
2021/01/06 00:51:13;;;;;;;16.50;9.27;;;5.50;99.90;;;;;;5011180;28;20197;-77
2021/01/06 00:53:40;;;;;;;13.57;9.05;;;5.50;99.90;;;;;;5010067;28;20195;-76
2021/01/06 00:56:06;;;;;;;13.63;9.32;;;5.40;99.90;;;;;;5011563;28;20661;-76
2021/01/06 00:58:36;;;;;;;13.13;9.00;;;5.40;99.90;;;;;;5009254;28;20199;-76
2021/01/06 01:01:04;;;;;;;12.65;8.20;;;5.40;99.90;;;;;;5007485;28;20227;-77
2021/01/06 01:03:38;;;;;;;15.35;9.20;;;5.40;99.90;;;;;;5008614;28;20208;-77
2021/01/06 01:06:06;;;;;;;14.77;8.82;;;5.40;99.90;;;;;;5010363;28;20246;-77
2021/01/06 01:08:32;;;;;;;13.40;9.15;;;5.40;99.90;;;;;;5008731;28;20212;-77
2021/01/06 01:10:59;;;;;;;13.25;9.10;;;5.40;99.90;;;;;;5010307;28;20197;-77
2021/01/06 01:13:26;;;;;;;14.07;9.13;;;5.40;99.90;;;;;;5009686;28;20200;-76
2021/01/06 01:15:55;;;;;;;11.65;8.40;;;5.40;99.90;;;;;;5007863;28;20216;-76
2021/01/06 01:18:23;;;;;;;11.73;9.18;;;5.40;99.90;;;;;;5011360;28;20246;-77
2021/01/06 01:20:53;;;;;;;15.60;9.30;;;5.40;99.90;;;;;;5010781;28;20235;-77
2021/01/06 01:23:21;;;;;;;14.93;9.38;;;5.30;99.90;;;;;;5010702;28;20204;-77
2021/01/06 01:25:48;;;;;;;14.90;9.60;;;5.30;99.90;;;;;;5010803;28;20212;-77
2021/01/06 01:28:16;;;;;;;15.02;9.35;;;5.30;99.90;;;;;;5011827;28;20580;-77
2021/01/06 01:30:43;;;;;;;14.13;9.98;;;5.30;99.90;;;;;;5007754;28;20224;-77
2021/01/06 01:33:11;;;;;;;15.82;10.60;;;5.30;99.90;;;;;;4999808;28;20192;-77
2021/01/06 01:35:37;;;;;;;15.25;10.57;;;5.30;99.90;;;;;;5009443;28;20208;-78
2021/01/06 01:38:05;;;;;;;15.05;10.45;;;5.30;99.90;;;;;;5011338;28;20189;-78
2021/01/06 01:40:35;;;;;;;17.17;10.52;;;5.30;99.90;;;;;;5010685;28;20220;-77
2021/01/06 01:43:05;;;;;;;17.75;10.32;;;5.30;99.90;;;;;;5006843;28;20203;-78
2021/01/06 01:45:59;;;;;;;16.17;10.48;;;5.30;99.90;;;;;;5008976;28;20212;-77
2021/01/06 01:48:30;;;;;;;17.02;10.48;;;5.30;99.90;;;;;;5006247;28;20209;-77
2021/01/06 01:51:02;;;;;;;18.17;10.38;;;5.30;99.90;;;;;;5017443;28;20208;-78
2021/01/06 01:53:31;;;;;;;16.85;10.38;;;5.30;99.90;;;;;;5008202;28;20701;-78
2021/01/06 01:55:59;;;;;;;19.20;10.75;;;5.30;99.90;;;;;;5007542;28;20245;-78
2021/01/06 01:58:28;;;;;;;19.60;10.77;;;5.30;99.90;;;;;;5025803;28;20209;-77
2021/01/06 02:00:56;;;;;;;18.48;10.57;;;5.30;99.90;;;;;;5014176;28;20219;-78
2021/01/06 02:03:29;;;;;;;16.10;9.63;;;5.30;99.90;;;;;;5015040;28;20262;-78
2021/01/06 02:06:01;;;;;;;19.58;10.18;;;5.30;99.90;;;;;;5012655;28;20611;-77
2021/01/06 02:08:32;;;;;;;15.02;9.10;;;5.20;99.90;;;;;;5012733;28;20208;-77
2021/01/06 02:11:05;;;;;;;14.27;8.80;;;5.20;99.90;;;;;;5012853;28;20661;-77
2021/01/06 02:13:36;;;;;;;13.80;8.38;;;5.20;99.90;;;;;;5012901;28;20220;-77
2021/01/06 02:16:10;;;;;;;18.92;8.75;;;5.10;99.90;;;;;;5011485;28;20573;-77
2021/01/06 02:18:36;;;;;;;14.73;8.20;;;5.10;99.90;;;;;;5014997;28;20192;-78
2021/01/06 02:21:07;;;;;;;16.35;8.32;;;5.10;99.90;;;;;;5013369;28;20232;-77
2021/01/06 02:23:35;;;;;;;13.80;8.13;;;5.10;99.90;;;;;;5013407;28;20207;-76
2021/01/06 02:26:02;;;;;;;13.23;7.82;;;5.10;99.90;;;;;;5013088;28;20694;-76
2021/01/06 02:28:29;;;;;;;15.73;8.02;;;5.10;99.90;;;;;;5014482;28;20611;-78
2021/01/06 02:30:55;;;;;;;11.05;6.90;;;5.10;99.90;;;;;;5012394;28;20231;-77
2021/01/06 02:33:22;;;;;;;14.45;7.78;;;5.00;99.90;;;;;;5012278;28;20208;-77
2021/01/06 02:35:50;;;;;;;10.90;7.13;;;5.00;99.90;;;;;;5011528;28;20569;-76
2021/01/06 02:38:17;;;;;;;11.50;7.43;;;4.90;99.90;;;;;;5013739;28;20215;-78
2021/01/06 02:40:44;;;;;;;10.82;8.13;;;4.90;99.90;;;;;;5011108;28;20231;-78
2021/01/06 02:43:12;;;;;;;11.90;7.55;;;4.90;99.90;;;;;;5012149;28;20254;-78
2021/01/06 02:45:38;;;;;;;13.23;7.57;;;4.90;99.90;;;;;;5012117;28;20582;-75
2021/01/06 02:48:06;;;;;;;12.10;8.35;;;4.80;99.90;;;;;;5012229;28;20208;-76
2021/01/06 02:50:33;;;;;;;15.48;8.40;;;4.80;99.90;;;;;;5007586;28;20200;-77
2021/01/06 02:53:04;;;;;;;11.38;7.72;;;4.80;99.90;;;;;;5010073;28;20200;-76
2021/01/06 02:55:34;;;;;;;12.18;8.20;;;4.80;99.90;;;;;;5009532;28;20208;-76
2021/01/06 02:58:04;;;;;;;11.13;7.75;;;4.70;99.90;;;;;;5009554;28;20213;-77
2021/01/06 03:00:31;;;;;;;15.00;7.75;;;4.70;99.90;;;;;;5009523;28;20672;-78
2021/01/06 03:02:58;;;;;;;11.07;7.38;;;4.70;99.90;;;;;;5013423;28;20197;-79
2021/01/06 03:05:32;;;;;;;16.10;7.68;;;4.60;99.90;;;;;;5010071;28;20255;-78
2021/01/06 03:07:59;;;;;;;11.60;6.95;;;4.60;99.90;;;;;;5010824;28;20208;-78
2021/01/06 03:10:25;;;;;;;13.70;7.55;;;4.50;99.90;;;;;;5010278;28;20200;-78
2021/01/06 03:12:55;;;;;;;12.27;7.53;;;4.50;99.90;;;;;;5012181;28;20201;-78
2021/01/06 03:15:25;;;;;;;12.40;7.00;;;4.50;99.90;;;;;;5011942;28;20216;-76
2021/01/06 03:17:53;;;;;;;10.60;6.63;;;4.60;99.90;;;;;;5012819;28;20645;-76
2021/01/06 03:20:23;;;;;;;14.40;6.82;;;4.60;99.90;;;;;;5011807;28;20209;-77
2021/01/06 03:22:54;;;;;;;11.23;6.25;;;4.50;99.90;;;;;;5006776;28;20212;-76
2021/01/06 03:25:20;;;;;;;10.00;6.25;;;4.50;99.90;;;;;;5011427;28;20205;-77
2021/01/06 03:27:50;;;;;;;14.50;7.00;;;4.60;99.90;;;;;;5009919;28;20389;-75
2021/01/06 03:30:21;;;;;;;10.18;6.13;;;4.60;99.90;;;;;;5003856;28;20601;-77
2021/01/06 03:32:54;;;;;;;11.02;5.78;;;4.50;99.90;;;;;;5012336;28;20208;-77
2021/01/06 03:35:27;;;;;;;11.68;5.95;;;4.50;99.90;;;;;;5011661;28;20625;-77
2021/01/06 03:37:56;;;;;;;13.80;6.10;;;4.40;99.90;;;;;;5011951;28;20262;-76
2021/01/06 03:40:28;;;;;;;10.68;5.13;;;4.40;99.90;;;;;;5005983;28;20259;-77
2021/01/06 03:42:55;;;;;;;13.35;5.82;;;4.40;99.90;;;;;;5012105;28;20251;-78
2021/01/06 03:45:27;;;;;;;9.88;5.35;;;4.50;99.90;;;;;;5008942;28;20328;-77
2021/01/06 03:48:01;;;;;;;10.07;5.30;;;4.50;99.90;;;;;;5010824;28;20205;-77
2021/01/06 03:50:32;;;;;;;12.02;5.15;;;4.50;99.90;;;;;;5009594;28;20205;-77
2021/01/06 03:53:06;;;;;;;9.98;5.47;;;4.50;99.90;;;;;;5010387;28;20232;-78
2021/01/06 03:55:48;;;;;;;10.25;5.55;;;4.50;99.90;;;;;;5010519;28;20240;-76
2021/01/06 03:58:35;;;;;;;9.80;5.25;;;4.50;99.90;;;;;;5011898;28;20552;-77
2021/01/06 04:01:12;;;;;;;10.43;5.43;;;4.50;99.90;;;;;;5007883;28;20228;-77
2021/01/06 04:03:50;;;;;;;9.23;5.35;;;4.50;99.90;;;;;;5008755;28;20555;-76
2021/01/06 04:06:20;;;;;;;10.13;5.22;;;4.50;99.90;;;;;;5010189;28;20263;-78
2021/01/06 04:08:50;;;;;;;12.00;5.75;;;4.50;99.90;;;;;;5009124;28;20204;-78
2021/01/06 04:11:21;;;;;;;11.70;5.82;;;4.40;99.90;;;;;;5007801;28;20204;-77
2021/01/06 04:13:48;;;;;;;11.02;5.50;;;4.50;99.90;;;;;;5012156;28;20208;-76
2021/01/06 04:16:15;;;;;;;11.25;5.68;;;4.50;99.90;;;;;;5009745;28;20250;-77
2021/01/06 04:18:43;;;;;;;13.27;6.15;;;4.50;99.90;;;;;;5010524;28;20223;-77
2021/01/06 04:21:09;;;;;;;10.65;6.15;;;4.50;99.90;;;;;;5006860;28;20576;-76
2021/01/06 04:23:36;;;;;;;8.75;5.80;;;4.50;99.90;;;;;;5011604;28;20676;-76
2021/01/06 04:26:03;;;;;;;15.75;6.05;;;4.50;99.90;;;;;;5008470;28;20227;-78
2021/01/06 04:28:32;;;;;;;10.88;5.43;;;4.40;99.90;;;;;;5011898;28;20359;-77
2021/01/06 04:31:01;;;;;;;10.88;6.00;;;4.40;99.90;;;;;;5008568;28;20233;-76
2021/01/06 04:33:32;;;;;;;9.80;5.60;;;4.40;99.90;;;;;;5009365;28;20209;-77
2021/01/06 04:36:00;;;;;;;12.75;6.55;;;4.40;99.90;;;;;;5007847;28;20243;-77
2021/01/06 04:38:29;;;;;;;12.75;6.05;;;4.40;99.90;;;;;;5009884;28;20201;-78
2021/01/06 04:40:59;;;;;;;9.95;5.93;;;4.40;99.90;;;;;;5007190;28;20218;-78
2021/01/06 04:43:36;;;;;;;10.00;5.88;;;4.50;99.90;;;;;;5011235;28;20646;-77
2021/01/06 04:46:17;;;;;;;10.55;5.18;;;4.50;99.90;;;;;;5008384;28;20208;-78
2021/01/06 04:48:55;;;;;;;10.50;5.38;;;4.50;99.90;;;;;;5009191;28;20721;-77
2021/01/06 04:51:40;;;;;;;9.98;5.82;;;4.50;99.90;;;;;;5008892;28;20197;-77
2021/01/06 04:54:36;;;;;;;12.85;5.22;;;4.50;99.90;;;;;;5009562;28;20204;-77
2021/01/06 04:57:19;;;;;;;9.43;5.35;;;4.50;99.90;;;;;;5002331;28;20219;-76
2021/01/06 05:00:02;;;;;;;9.23;5.43;;;4.50;99.90;;;;;;5009133;28;20220;-76
2021/01/06 05:03:03;;;;;;;10.02;5.22;;;4.50;99.90;;;;;;5009013;28;20212;-76
2021/01/06 05:05:54;;;;;;;8.98;5.13;;;4.50;99.90;;;;;;4963148;28;20230;-76
2021/01/06 05:08:27;;;;;;;11.57;5.00;;;4.40;99.90;;;;;;5010930;28;20242;-76
2021/01/06 05:11:01;;;;;;;10.15;5.15;;;4.40;99.90;;;;;;5009760;28;20280;-76
2021/01/06 05:13:34;;;;;;;9.82;5.00;;;4.40;99.90;;;;;;5008876;28;20208;-77
2021/01/06 05:16:02;;;;;;;9.32;5.25;;;4.40;99.90;;;;;;5007834;28;20258;-76
2021/01/06 05:18:29;;;;;;;11.07;5.68;;;4.40;99.90;;;;;;5010747;28;20196;-77
2021/01/06 05:20:56;;;;;;;10.68;6.20;;;4.40;99.90;;;;;;5006394;28;20224;-77
2021/01/06 05:23:26;;;;;;;9.68;5.38;;;4.40;99.90;;;;;;5007026;28;20204;-77
2021/01/06 05:25:54;;;;;;;11.48;5.70;;;4.50;99.90;;;;;;5006050;28;20204;-78
2021/01/06 05:28:22;;;;;;;8.55;5.85;;;4.40;99.90;;;;;;5009809;28;20204;-77
2021/01/06 05:30:53;;;;;;;10.77;6.30;;;4.40;99.90;;;;;;5009769;28;20230;-77
2021/01/06 05:33:25;;;;;;;13.73;6.30;;;4.40;99.90;;;;;;5010376;28;20207;-76
2021/01/06 05:35:51;;;;;;;9.25;5.53;;;4.30;99.90;;;;;;5008912;28;20197;-76
2021/01/06 05:38:20;;;;;;;9.30;5.90;;;4.40;99.90;;;;;;5010135;28;20600;-76
2021/01/06 05:40:47;;;;;;;12.57;6.10;;;4.40;99.90;;;;;;5004847;28;20692;-77
2021/01/06 05:43:33;;;;;;;8.18;5.60;;;4.40;99.90;;;;;;5010275;28;20203;-76
2021/01/06 05:46:02;;;;;;;11.32;5.90;;;4.30;99.90;;;;;;5007015;28;20855;-76
2021/01/06 05:48:34;;;;;;;14.10;6.50;;;4.40;99.90;;;;;;5009450;28;20205;-76
2021/01/06 05:51:06;;;;;;;11.43;6.43;;;4.40;99.90;;;;;;5006048;28;20661;-76
2021/01/06 05:53:41;;;;;;;10.75;6.03;;;4.30;99.90;;;;;;5008292;28;20288;-77
2021/01/06 05:56:24;;;;;;;10.35;6.22;;;4.30;99.90;;;;;;5007559;28;20215;-78
2021/01/06 05:58:56;;;;;;;13.95;6.70;;;4.30;99.90;;;;;;5008015;28;20216;-78
2021/01/06 06:01:38;;;;;;;9.32;6.45;;;4.30;99.90;;;;;;5009403;28;20217;-76
2021/01/06 06:04:19;;;;;;;11.00;6.43;;;4.20;99.90;;;;;;5009422;28;20617;-77
2021/01/06 06:07:16;;;;;;;13.70;6.50;;;4.20;99.90;;;;;;5006847;28;20231;-75
2021/01/06 06:10:19;;;;;;;13.30;6.10;;;4.20;99.90;;;;;;5008961;28;20208;-78
2021/01/06 06:12:57;;;;;;;11.57;6.15;;;4.20;99.90;;;;;;4931697;29;20233;-78
2021/01/06 06:15:41;;;;;;;10.68;6.03;;;4.20;99.90;;;;;;4992875;28;20216;-78
2021/01/06 06:18:25;;;;;;;11.82;6.35;;;4.20;99.90;;;;;;5010575;28;21633;-78
2021/01/06 06:20:58;;;;;;;11.40;6.25;;;4.20;99.90;;;;;;5008485;28;20795;-77
2021/01/06 06:23:42;;;;;;;9.95;6.03;;;4.20;99.90;;;;;;5010835;28;20192;-78
2021/01/06 06:26:15;;;;;;;12.50;6.68;;;4.20;99.90;;;;;;5011004;28;20548;-79
2021/01/06 06:28:45;;;;;;;10.95;6.70;;;4.20;99.90;;;;;;5013677;28;20568;-80
2021/01/06 06:31:23;;;;;;;10.02;6.15;;;4.20;99.90;;;;;;5014887;28;20238;-80
2021/01/06 06:33:54;;;;;;;9.48;6.53;;;4.20;99.90;;;;;;5012509;28;20227;-79
2021/01/06 06:36:26;;;;;;;10.27;6.75;;;4.20;99.90;;;;;;5014186;28;20208;-78
2021/01/06 06:38:54;;;;;;;11.93;6.70;;;4.20;99.90;;;;;;5009552;28;20209;-78
2021/01/06 06:41:34;;;;;;;18.92;6.72;;;4.20;99.90;;;;;;5004868;28;20217;-78
2021/01/06 06:44:29;;;;;;;17.33;6.65;;;4.20;99.90;;;;;;5007355;28;20192;-78
2021/01/06 06:47:10;;;;;;;12.50;6.43;;;4.30;99.90;;;;;;5012200;28;20580;-77
2021/01/06 06:49:58;;;;;;;11.68;6.50;;;4.30;99.90;;;;;;5013270;28;20196;-78
2021/01/06 06:52:29;;;;;;;11.50;6.40;;;4.30;99.90;;;;;;5012970;28;20555;-78
2021/01/06 06:55:09;;;;;;;13.32;6.60;;;4.30;99.90;;;;;;5013735;28;20204;-77
2021/01/06 06:57:42;;;;;;;11.70;7.50;;;4.30;99.90;;;;;;5012712;28;20209;-78
2021/01/06 07:00:17;;;;;;;11.85;6.90;;;4.30;99.90;;;;;;5012792;28;20255;-78
2021/01/06 07:02:49;;;;;;;13.18;7.10;;;4.30;99.90;;;;;;5011287;28;20204;-78
2021/01/06 07:05:24;;;;;;;13.40;7.57;;;4.40;99.90;;;;;;5013891;28;20916;-79
2021/01/06 07:07:53;;;;;;;15.15;7.43;;;4.30;99.90;;;;;;5013698;28;20251;-77
2021/01/06 07:10:24;;;;;;;12.63;6.88;;;4.40;99.90;;;;;;5012286;28;20203;-80
2021/01/06 07:12:53;;;;;;;18.58;7.57;;;4.40;99.90;;;;;;5013220;28;20207;-80
2021/01/06 07:15:24;;;;;;;14.25;7.07;;;4.40;99.90;;;;;;5013600;28;20235;-78
2021/01/06 07:17:50;;;;;;;10.30;6.72;;;4.50;99.90;;;;;;5010892;28;20205;-79
2021/01/06 07:20:39;;;;;;;13.10;7.15;;;4.40;99.90;;;;;;5014178;28;20232;-79
2021/01/06 07:23:16;;;;;;;18.25;7.20;;;4.40;99.90;;;;;;5013581;28;20575;-80
2021/01/06 07:25:42;;;;;;;14.40;7.35;;;4.40;99.90;;;;;;5013766;28;20205;-77
2021/01/06 07:28:15;;;;;;;16.42;7.32;;;4.50;99.90;;;;;;5011616;28;20250;-76
2021/01/06 07:30:43;;;;;;;11.50;6.65;;;4.50;99.90;;;;;;5012548;28;20284;-79
2021/01/06 07:33:17;;;;;;;19.25;7.20;;;4.50;99.90;;;;;;5011800;28;20623;-78
2021/01/06 07:35:44;;;;;;;13.57;6.72;;;4.50;99.90;;;;;;5011554;28;20204;-77
2021/01/06 07:38:11;;;;;;;15.93;7.53;;;4.50;99.90;;;;;;5013074;28;20201;-78
2021/01/06 07:40:40;;;;;;;13.40;7.07;;;4.50;99.90;;;;;;5012573;28;20243;-78
2021/01/06 07:43:21;;;;;;;13.48;6.95;;;4.50;99.90;;;;;;5011355;28;20223;-76
2021/01/06 07:46:14;;;;;;;13.20;7.10;;;4.50;99.90;;;;;;5012769;28;20243;-78
2021/01/06 07:49:08;;;;;;;13.30;7.20;;;4.60;99.90;;;;;;5011238;28;20547;-79
2021/01/06 07:51:51;;;;;;;15.65;7.50;;;4.60;99.90;;;;;;5008623;28;20232;-80
2021/01/06 07:54:26;;;;;;;12.38;7.20;;;4.60;99.90;;;;;;5011455;28;20231;-80
2021/01/06 07:57:03;;;;;;;11.60;7.30;;;4.60;99.90;;;;;;5010733;28;20215;-79
2021/01/06 07:59:43;;;;;;;12.65;6.90;;;4.60;99.90;;;;;;5007263;28;20262;-78
2021/01/06 08:02:12;;;;;;;14.25;7.15;;;4.50;99.90;;;;;;5009600;28;20255;-78
2021/01/06 08:04:46;;;;;;;12.55;6.65;;;4.50;99.90;;;;;;5010785;28;20287;-78
2021/01/06 08:07:19;;;;;;;10.35;6.70;;;4.50;99.90;;;;;;5009689;28;20205;-78
2021/01/06 08:09:46;;;;;;;13.52;7.72;;;4.50;99.90;;;;;;5010776;28;20212;-78
2021/01/06 08:12:21;;;;;;;13.70;7.60;;;4.50;99.90;;;;;;5012717;28;20224;-78
2021/01/06 08:14:49;;;;;;;12.80;7.57;;;4.50;99.90;;;;;;5006723;28;20766;-78
2021/01/06 08:17:24;;;;;;;13.32;7.05;;;4.50;99.90;;;;;;5008128;28;20203;-78
2021/01/06 08:20:02;;;;;;;12.98;7.55;;;4.50;99.90;;;;;;5005786;28;20208;-77
2021/01/06 08:22:38;;;;;;;15.82;7.70;;;4.50;99.90;;;;;;5008952;28;20688;-79
2021/01/06 08:25:20;;;;;;;15.20;8.35;;;4.50;99.90;;;;;;5008640;28;20200;-76
2021/01/06 08:27:47;;;;;;;12.75;7.63;;;4.40;99.90;;;;;;5011337;28;20204;-75
2021/01/06 08:30:20;;;;;;;15.57;8.00;;;4.50;99.90;;;;;;5010895;28;20201;-77
2021/01/06 08:32:47;;;;;;;15.88;7.35;;;4.50;99.90;;;;;;5011761;28;20232;-77
2021/01/06 08:35:19;;;;;;;16.15;7.90;;;4.50;99.90;;;;;;5010798;28;20213;-76
2021/01/06 08:37:48;;;;;;;16.67;8.43;;;4.50;99.90;;;;;;5012089;28;20200;-77
2021/01/06 08:40:31;;;;;;;12.10;7.40;;;4.50;99.90;;;;;;5012091;28;20223;-77
2021/01/06 08:42:59;;;;;;;16.65;8.10;;;4.50;99.90;;;;;;5012628;28;20207;-76
2021/01/06 08:45:29;;;;;;;14.63;7.85;;;4.50;99.90;;;;;;5010050;28;20544;-77
2021/01/06 08:47:55;;;;;;;14.75;8.25;;;4.60;99.90;;;;;;5010994;28;20259;-77
2021/01/06 08:50:29;;;;;;;16.52;8.20;;;4.60;99.90;;;;;;5008684;28;20208;-78
2021/01/06 08:52:57;;;;;;;17.17;8.23;;;4.60;99.90;;;;;;5012187;28;20212;-77
2021/01/06 08:55:26;;;;;;;15.25;7.80;;;4.60;99.90;;;;;;5008584;28;20204;-76
2021/01/06 08:58:01;;;;;;;19.13;8.95;;;4.60;99.90;;;;;;5008386;28;20208;-76
2021/01/06 09:00:33;;;;;;;17.70;8.60;;;4.60;99.90;;;;;;5008166;28;20546;-78
2021/01/06 09:03:08;;;;;;;19.05;8.02;;;4.70;99.90;;;;;;5009672;28;20215;-78
2021/01/06 09:05:42;;;;;;;17.15;8.18;;;4.70;99.90;;;;;;5007862;28;20204;-77
2021/01/06 09:08:12;;;;;;;11.55;7.78;;;4.70;99.90;;;;;;5007760;28;20201;-77
2021/01/06 09:10:45;;;;;;;16.38;8.60;;;4.70;99.90;;;;;;5006309;28;20688;-77
2021/01/06 09:13:15;;;;;;;14.88;8.43;;;4.70;99.90;;;;;;5005703;28;20208;-77
2021/01/06 09:15:49;;;;;;;13.68;8.20;;;4.70;99.90;;;;;;5009479;28;20216;-76
2021/01/06 09:18:21;;;;;;;15.63;8.98;;;4.70;99.90;;;;;;5010263;28;20242;-76
2021/01/06 09:21:06;;;;;;;16.65;8.60;;;4.80;99.90;;;;;;5009256;28;20620;-77
2021/01/06 09:23:33;;;;;;;14.52;8.93;;;4.70;99.90;;;;;;5010298;28;20228;-78
2021/01/06 09:26:02;;;;;;;16.90;8.63;;;4.80;99.90;;;;;;5010539;28;20262;-78
2021/01/06 09:28:30;;;;;;;17.80;9.32;;;4.80;99.90;;;;;;5010407;28;20641;-77
2021/01/06 09:30:58;;;;;;;16.20;8.52;;;4.80;99.90;;;;;;5008792;28;20228;-76
2021/01/06 09:33:27;;;;;;;18.88;9.65;;;4.90;99.90;;;;;;4998361;28;20665;-77
2021/01/06 09:35:55;;;;;;;18.73;9.43;;;4.90;99.90;;;;;;5000232;28;20220;-76
2021/01/06 09:38:29;;;;;;;17.02;9.05;;;4.90;99.90;;;;;;5011068;28;20677;-79
2021/01/06 09:41:00;;;;;;;15.65;8.57;;;5.00;99.90;;;;;;5008603;28;20215;-77
2021/01/06 09:43:35;;;;;;;16.80;9.73;;;5.00;99.90;;;;;;5008344;28;20204;-77
2021/01/06 09:46:09;;;;;;;20.48;9.43;;;5.00;99.90;;;;;;5006779;28;20990;-76
2021/01/06 09:48:35;;;;;;;15.63;8.98;;;5.00;99.90;;;;;;5009032;28;20228;-77
2021/01/06 09:51:02;;;;;;;17.23;9.73;;;5.10;99.90;;;;;;5009479;28;20192;-76
2021/01/06 09:53:31;;;;;;;18.17;9.38;;;5.10;99.90;;;;;;5006049;28;20571;-77
2021/01/06 09:55:58;;;;;;;18.00;9.10;;;5.10;99.90;;;;;;5009599;28;20208;-77
2021/01/06 09:58:31;;;;;;;19.40;9.32;;;5.10;99.90;;;;;;5005673;28;20196;-77
2021/01/06 10:01:09;;;;;;;16.60;8.65;;;5.00;99.90;;;;;;5008159;28;20208;-76
2021/01/06 10:03:37;;;;;;;21.45;8.75;;;5.10;99.90;;;;;;5006235;28;20284;-77
2021/01/06 10:06:18;;;;;;;13.82;8.07;;;5.10;99.90;;;;;;5008058;28;20539;-77
2021/01/06 10:08:48;;;;;;;13.93;7.88;;;5.00;99.90;;;;;;5010767;28;20224;-76
2021/01/06 10:11:40;;;;;;;17.05;8.32;;;5.10;99.90;;;;;;5009148;28;20239;-76
2021/01/06 10:14:32;;;;;;;15.38;8.27;;;5.10;99.90;;;;;;5010394;28;20199;-76
2021/01/06 10:17:03;;;;;;;15.98;8.23;;;5.10;99.90;;;;;;5008366;28;20581;-77
2021/01/06 10:19:39;;;;;;;15.93;7.65;;;5.20;99.90;;;;;;5009417;28;20200;-75
2021/01/06 10:22:20;;;;;;;15.88;7.22;;;5.20;99.90;;;;;;5012680;28;20224;-76
2021/01/06 10:25:04;;;;;;;18.38;8.18;;;5.20;99.90;;;;;;5007020;28;20209;-76
2021/01/06 10:27:35;;;;;;;14.15;7.28;;;5.30;99.90;;;;;;5028740;28;20218;-77
2021/01/06 10:30:09;;;;;;;13.65;7.25;;;5.20;99.90;;;;;;5012528;28;20580;-77
2021/01/06 10:32:46;;;;;;;16.35;7.63;;;5.20;99.90;;;;;;5013895;28;20228;-77
2021/01/06 10:35:37;;;;;;;11.38;6.93;;;5.30;99.90;;;;;;5012212;28;20286;-77
2021/01/06 10:38:24;;;;;;;14.23;6.95;;;5.30;99.90;;;;;;5014136;28;20270;-77
2021/01/06 10:40:52;;;;;;;13.07;6.90;;;5.30;99.90;;;;;;5011305;28;20716;-76
2021/01/06 10:43:35;;;;;;;12.73;6.03;;;5.30;99.90;;;;;;5013714;28;20739;-77
2021/01/06 10:46:02;;;;;;;12.02;6.45;;;5.30;99.90;;;;;;5013320;28;20211;-76
2021/01/06 10:48:42;;;;;;;15.15;7.20;;;5.30;99.90;;;;;;5013849;28;20225;-77
2021/01/06 10:51:08;;;;;;;12.90;6.10;;;5.40;99.90;;;;;;5011263;28;20871;-76
2021/01/06 10:53:40;;;;;;;12.85;6.63;;;5.40;99.90;;;;;;5011851;28;20204;-77
2021/01/06 10:56:09;;;;;;;17.00;6.47;;;5.40;99.90;;;;;;5012448;28;20677;-77
2021/01/06 10:58:51;;;;;;;15.20;6.15;;;5.50;99.90;;;;;;5013678;28;20571;-77
2021/01/06 11:01:48;;;;;;;12.82;5.75;;;5.50;99.90;;;;;;5012588;28;20255;-77
2021/01/06 11:04:44;;;;;;;14.35;6.40;;;5.50;99.90;;;;;;5011435;28;20258;-77
2021/01/06 11:07:23;;;;;;;13.70;6.55;;;5.50;99.90;;;;;;5010883;28;20220;-77
2021/01/06 11:10:14;;;;;;;12.20;6.10;;;5.50;99.90;;;;;;5012870;28;20211;-76
2021/01/06 11:13:02;;;;;;;10.57;5.53;;;5.60;99.90;;;;;;5013690;28;20668;-77
2021/01/06 11:15:43;;;;;;;12.05;6.03;;;5.60;99.90;;;;;;5009843;28;20282;-76
2021/01/06 11:18:33;;;;;;;12.30;6.07;;;5.50;99.90;;;;;;5007466;28;20200;-76
2021/01/06 11:21:39;;;;;;;15.63;6.20;;;5.60;99.90;;;;;;5005299;28;20233;-76
2021/01/06 11:24:34;;;;;;;10.93;5.82;;;5.60;99.90;;;;;;5013489;28;20728;-76
2021/01/06 11:27:01;;;;;;;16.95;7.70;;;5.60;99.90;;;;;;5011320;28;20240;-76
2021/01/06 11:29:45;;;;;;;17.00;5.22;;;5.60;99.90;;;;;;5013917;28;20196;-76
2021/01/06 11:32:35;;;;;;;13.75;5.15;;;5.60;99.90;;;;;;5006882;28;20224;-77
2021/01/06 11:35:32;;;;;;;16.92;5.38;;;5.60;99.90;;;;;;5011581;28;20196;-76
2021/01/06 11:38:01;;;;;;;9.85;5.38;;;5.60;99.90;;;;;;4993968;28;20259;-76
2021/01/06 11:40:55;;;;;;;9.18;4.78;;;5.60;99.90;;;;;;5008258;28;20213;-77
2021/01/06 11:43:39;;;;;;;12.20;5.00;;;5.70;99.90;;;;;;5012332;28;20204;-76
2021/01/06 11:46:38;;;;;;;10.60;4.70;;;5.60;99.90;;;;;;5012424;28;20204;-77
2021/01/06 11:49:14;;;;;;;9.40;4.50;;;5.70;99.90;;;;;;5005974;28;20204;-76
2021/01/06 11:52:01;;;;;;;11.68;4.43;;;5.70;99.90;;;;;;5011902;28;20602;-76
2021/01/06 11:54:33;;;;;;;12.18;4.53;;;5.70;99.90;;;;;;5008676;28;20200;-76
2021/01/06 11:57:05;;;;;;;21.83;8.18;;;5.70;99.90;;;;;;5011200;28;20204;-76
2021/01/06 11:59:38;;;;;;;10.80;5.03;;;5.70;99.90;;;;;;5011325;28;20251;-75
2021/01/06 12:02:15;;;;;;;10.85;4.55;;;5.80;99.90;;;;;;5010993;28;20626;-78
2021/01/06 12:05:06;;;;;;;9.27;4.53;;;5.80;99.90;;;;;;5011668;28;20562;-75
2021/01/06 12:08:12;;;;;;;10.23;4.50;;;5.90;99.90;;;;;;5009188;28;20197;-75
2021/01/06 12:10:55;;;;;;;6.28;3.67;;;5.90;99.90;;;;;;5020435;28;20604;-75
2021/01/06 12:13:32;;;;;;;11.80;4.65;;;5.90;99.90;;;;;;5007308;28;20193;-75
2021/01/06 12:16:10;;;;;;;11.48;3.72;;;5.90;99.90;;;;;;5010756;28;20208;-76
2021/01/06 12:18:58;;;;;;;10.15;4.55;;;5.90;99.90;;;;;;5012041;28;20591;-75
2021/01/06 12:21:42;;;;;;;14.75;4.55;;;5.90;99.90;;;;;;5003909;28;20273;-76
2021/01/06 12:24:22;;;;;;;12.85;3.85;;;5.90;99.90;;;;;;5012296;28;20543;-75
2021/01/06 12:26:57;;;;;;;13.23;4.57;;;5.90;99.90;;;;;;5010243;28;20212;-75
2021/01/06 12:29:28;;;;;;;13.77;4.80;;;5.90;99.90;;;;;;5011681;28;20586;-76
2021/01/06 12:31:59;;;;;;;11.23;4.60;;;5.90;99.90;;;;;;5009948;28;20228;-77
2021/01/06 12:34:33;;;;;;;14.52;4.32;;;5.90;99.90;;;;;;5011496;28;20212;-76
2021/01/06 12:37:20;;;;;;;11.88;4.28;;;5.90;99.90;;;;;;5010997;28;20262;-76
2021/01/06 12:40:05;;;;;;;12.38;4.55;;;5.90;99.90;;;;;;5012234;28;20212;-77
2021/01/06 12:42:36;;;;;;;9.23;4.13;;;5.90;99.90;;;;;;5009626;28;20588;-75
2021/01/06 12:45:15;;;;;;;7.25;4.10;;;5.90;99.90;;;;;;5009101;28;20219;-75
2021/01/06 12:47:54;;;;;;;16.33;4.15;;;5.90;99.90;;;;;;5022697;28;20963;-75
2021/01/06 12:50:25;;;;;;;13.40;3.85;;;5.90;99.90;;;;;;5003375;28;20263;-78
2021/01/06 12:52:54;;;;;;;10.85;4.10;;;5.90;99.90;;;;;;5008597;28;20587;-78
2021/01/06 12:55:29;;;;;;;11.18;4.07;;;5.90;99.90;;;;;;5009415;28;20204;-78
2021/01/06 12:57:59;;;;;;;6.35;3.90;;;5.90;99.90;;;;;;5009761;28;20204;-77
2021/01/06 13:00:34;;;;;;;8.73;3.70;;;5.90;99.90;;;;;;5010814;28;20200;-78
2021/01/06 13:03:30;;;;;;;8.73;3.35;;;5.90;99.90;;;;;;5010671;28;20196;-77
2021/01/06 13:06:03;;;;;;;7.35;3.47;;;5.90;99.90;;;;;;5010332;28;20288;-77
2021/01/06 13:08:37;;;;;;;9.25;3.78;;;5.90;99.90;;;;;;5011329;28;20188;-77
2021/01/06 13:11:15;;;;;;;10.88;3.55;;;5.90;99.90;;;;;;5008522;28;20205;-77
2021/01/06 13:13:43;;;;;;;8.10;3.70;;;5.90;99.90;;;;;;5010360;28;20266;-76
2021/01/06 13:16:23;;;;;;;9.18;3.92;;;5.90;99.90;;;;;;5008073;28;20215;-76
2021/01/06 13:19:06;;;;;;;6.40;3.50;;;5.90;99.90;;;;;;5006300;28;20652;-77
2021/01/06 13:21:36;;;;;;;13.35;3.85;;;5.90;99.90;;;;;;5008283;28;20223;-76
2021/01/06 13:24:15;;;;;;;8.00;4.00;;;5.90;99.90;;;;;;5010775;28;20255;-78